sensor_id;sensor_type;location;lat;lon;timestamp;pressure;altitude;pressure_sealevel;temperature;humidity
6425;BME280;12193;42.642;23.384;2023-08-08T00:00:36;59546.94;;;-140.48;100.00
6425;BME280;12193;42.642;23.384;2023-08-08T00:03:08;59546.94;;;-140.48;100.00
6425;BME280;12193;42.642;23.384;2023-08-08T00:05:38;59546.94;;;-140.48;100.00
6425;BME280;12193;42.642;23.384;2023-08-08T03:08:32;94445.81;;;15.53;100.00
6425;BME280;12193;42.642;23.384;2023-08-08T03:11:02;94432.50;;;15.43;100.00
6425;BME280;12193;42.642;23.384;2023-08-08T03:13:31;94441.47;;;15.59;100.00
6425;BME280;12193;42.642;23.384;2023-08-08T03:16:01;94443.94;;;15.37;100.00
6425;BME280;12193;42.642;23.384;2023-08-08T03:18:31;94444.94;;;15.48;100.00
6425;BME280;12193;42.642;23.384;2023-08-08T03:21:00;94452.41;;;15.56;100.00
6425;BME280;12193;42.642;23.384;2023-08-08T03:23:32;94450.03;;;15.54;100.00
6425;BME280;12193;42.642;23.384;2023-08-08T03:26:01;94445.25;;;15.51;100.00
6425;BME280;12193;42.642;23.384;2023-08-08T03:28:31;94451.66;;;15.44;100.00
6425;BME280;12193;42.642;23.384;2023-08-08T03:31:00;94450.72;;;15.50;100.00
6425;BME280;12193;42.642;23.384;2023-08-08T03:33:29;94455.50;;;15.53;100.00
6425;BME280;12193;42.642;23.384;2023-08-08T03:35:58;94466.13;;;15.46;100.00
6425;BME280;12193;42.642;23.384;2023-08-08T03:38:28;94467.94;;;15.46;100.00
6425;BME280;12193;42.642;23.384;2023-08-08T03:41:00;94464.06;;;15.37;100.00
6425;BME280;12193;42.642;23.384;2023-08-08T03:43:29;94469.19;;;15.32;100.00
6425;BME280;12193;42.642;23.384;2023-08-08T03:45:59;94473.28;;;15.39;100.00
6425;BME280;12193;42.642;23.384;2023-08-08T03:48:28;94467.84;;;15.41;100.00
6425;BME280;12193;42.642;23.384;2023-08-08T03:50:58;94473.50;;;15.49;100.00
6425;BME280;12193;42.642;23.384;2023-08-08T03:53:27;94471.72;;;15.38;100.00
6425;BME280;12193;42.642;23.384;2023-08-08T03:55:56;94458.97;;;15.30;100.00
6425;BME280;12193;42.642;23.384;2023-08-08T03:58:29;94448.59;;;15.24;100.00
6425;BME280;12193;42.642;23.384;2023-08-08T04:00:58;94455.06;;;15.21;100.00
6425;BME280;12193;42.642;23.384;2023-08-08T04:03:27;94457.94;;;15.31;100.00
6425;BME280;12193;42.642;23.384;2023-08-08T04:05:57;94463.97;;;15.32;100.00
6425;BME280;12193;42.642;23.384;2023-08-08T04:08:26;94469.09;;;15.38;100.00
6425;BME280;12193;42.642;23.384;2023-08-08T04:10:56;94471.69;;;15.50;100.00
6425;BME280;12193;42.642;23.384;2023-08-08T04:13:28;94484.66;;;15.56;100.00
6425;BME280;12193;42.642;23.384;2023-08-08T04:15:57;94495.22;;;15.61;100.00
6425;BME280;12193;42.642;23.384;2023-08-08T04:18:26;94504.34;;;15.70;100.00
6425;BME280;12193;42.642;23.384;2023-08-08T04:20:55;94495.22;;;15.72;100.00
6425;BME280;12193;42.642;23.384;2023-08-08T04:23:25;94500.47;;;15.61;100.00
6425;BME280;12193;42.642;23.384;2023-08-08T04:25:54;94499.16;;;15.47;100.00
6425;BME280;12193;42.642;23.384;2023-08-08T04:28:23;94512.91;;;15.65;100.00
6425;BME280;12193;42.642;23.384;2023-08-08T04:30:55;94506.09;;;15.53;100.00
6425;BME280;12193;42.642;23.384;2023-08-08T04:33:25;94507.75;;;15.70;100.00
6425;BME280;12193;42.642;23.384;2023-08-08T04:35:54;94513.13;;;15.64;100.00
6425;BME280;12193;42.642;23.384;2023-08-08T04:38:23;94519.25;;;15.69;100.00
6425;BME280;12193;42.642;23.384;2023-08-08T04:40:50;94519.63;;;15.73;100.00
6425;BME280;12193;42.642;23.384;2023-08-08T04:43:19;94527.03;;;15.76;100.00
6425;BME280;12193;42.642;23.384;2023-08-08T04:45:48;94522.66;;;15.81;100.00
6425;BME280;12193;42.642;23.384;2023-08-08T04:48:21;94528.66;;;15.93;100.00
6425;BME280;12193;42.642;23.384;2023-08-08T04:50:50;94521.56;;;16.05;100.00
6425;BME280;12193;42.642;23.384;2023-08-08T04:53:19;94517.97;;;16.23;100.00
6425;BME280;12193;42.642;23.384;2023-08-08T04:55:48;94508.44;;;16.17;100.00
6425;BME280;12193;42.642;23.384;2023-08-08T04:58:18;94504.53;;;16.19;100.00
6425;BME280;12193;42.642;23.384;2023-08-08T05:00:47;94509.00;;;16.19;100.00
6425;BME280;12193;42.642;23.384;2023-08-08T05:03:17;94515.59;;;16.21;100.00
6425;BME280;12193;42.642;23.384;2023-08-08T05:05:49;94521.72;;;16.27;100.00
6425;BME280;12193;42.642;23.384;2023-08-08T05:08:18;94535.94;;;16.42;100.00
6425;BME280;12193;42.642;23.384;2023-08-08T05:10:48;94542.81;;;16.60;100.00
6425;BME280;12193;42.642;23.384;2023-08-08T05:13:17;94548.56;;;16.73;100.00
6425;BME280;12193;42.642;23.384;2023-08-08T05:15:46;94547.81;;;16.89;100.00
6425;BME280;12193;42.642;23.384;2023-08-08T05:18:15;94566.81;;;17.62;100.00
6425;BME280;12193;42.642;23.384;2023-08-08T05:20:47;94575.13;;;18.13;100.00
6425;BME280;12193;42.642;23.384;2023-08-08T05:23:17;94570.38;;;18.53;100.00
6425;BME280;12193;42.642;23.384;2023-08-08T05:25:46;94581.56;;;18.91;97.34
6425;BME280;12193;42.642;23.384;2023-08-08T05:28:15;94587.34;;;19.14;96.66
6425;BME280;12193;42.642;23.384;2023-08-08T05:30:45;94584.34;;;18.80;96.69
6425;BME280;12193;42.642;23.384;2023-08-08T05:33:14;94593.09;;;18.37;98.69
6425;BME280;12193;42.642;23.384;2023-08-08T05:35:43;94589.31;;;18.28;100.00
6425;BME280;12193;42.642;23.384;2023-08-08T05:38:15;94592.09;;;18.65;97.04
6425;BME280;12193;42.642;23.384;2023-08-08T05:40:45;94604.72;;;18.63;98.88
6425;BME280;12193;42.642;23.384;2023-08-08T05:43:14;94602.00;;;19.05;94.41
6425;BME280;12193;42.642;23.384;2023-08-08T05:45:44;94601.28;;;19.41;92.46
6425;BME280;12193;42.642;23.384;2023-08-08T05:48:14;94609.81;;;19.22;91.27
6425;BME280;12193;42.642;23.384;2023-08-08T05:50:44;94616.22;;;19.31;92.55
6425;BME280;12193;42.642;23.384;2023-08-08T05:53:16;94601.38;;;19.56;89.75
6425;BME280;12193;42.642;23.384;2023-08-08T05:55:45;94610.75;;;19.74;89.16
6425;BME280;12193;42.642;23.384;2023-08-08T05:58:14;94617.38;;;19.45;92.89
6425;BME280;12193;42.642;23.384;2023-08-08T06:00:43;94611.94;;;18.51;94.85
6425;BME280;12193;42.642;23.384;2023-08-08T06:03:13;94623.25;;;18.30;96.82
6425;BME280;12193;42.642;23.384;2023-08-08T06:05:42;94621.47;;;18.35;97.64
6425;BME280;12193;42.642;23.384;2023-08-08T06:08:11;94631.38;;;19.19;91.37
6425;BME280;12193;42.642;23.384;2023-08-08T06:10:45;94619.34;;;19.95;87.05
6425;BME280;12193;42.642;23.384;2023-08-08T06:13:14;94621.72;;;19.97;84.52
6425;BME280;12193;42.642;23.384;2023-08-08T06:15:43;94618.16;;;20.18;85.76
6425;BME280;12193;42.642;23.384;2023-08-08T06:18:13;94619.88;;;20.39;83.34
6425;BME280;12193;42.642;23.384;2023-08-08T06:20:42;94614.50;;;19.46;88.65
6425;BME280;12193;42.642;23.384;2023-08-08T06:23:12;94618.25;;;19.55;88.76
6425;BME280;12193;42.642;23.384;2023-08-08T06:25:41;94623.25;;;20.29;85.39
6425;BME280;12193;42.642;23.384;2023-08-08T06:28:13;94624.97;;;20.65;81.92
6425;BME280;12193;42.642;23.384;2023-08-08T06:30:43;94629.56;;;20.80;79.97
6425;BME280;12193;42.642;23.384;2023-08-08T06:33:12;94628.88;;;21.19;76.88
6425;BME280;12193;42.642;23.384;2023-08-08T06:35:42;94627.59;;;21.61;73.01
6425;BME280;12193;42.642;23.384;2023-08-08T06:38:11;94625.94;;;22.30;71.03
6425;BME280;12193;42.642;23.384;2023-08-08T06:40:40;94620.75;;;22.73;67.16
6425;BME280;12193;42.642;23.384;2023-08-08T06:43:09;94619.31;;;23.44;65.49
6425;BME280;12193;42.642;23.384;2023-08-08T06:45:42;94609.28;;;23.69;59.60
6425;BME280;12193;42.642;23.384;2023-08-08T06:48:11;94611.75;;;23.61;60.16
6425;BME280;12193;42.642;23.384;2023-08-08T06:50:41;94619.00;;;22.49;61.72
6425;BME280;12193;42.642;23.384;2023-08-08T06:53:10;94618.78;;;22.35;60.83
6425;BME280;12193;42.642;23.384;2023-08-08T06:55:39;94623.00;;;23.10;59.56
6425;BME280;12193;42.642;23.384;2023-08-08T06:58:09;94614.97;;;23.14;58.29
6425;BME280;12193;42.642;23.384;2023-08-08T07:00:38;94612.72;;;21.30;66.98
6425;BME280;12193;42.642;23.384;2023-08-08T07:03:10;94619.47;;;20.67;67.60
6425;BME280;12193;42.642;23.384;2023-08-08T07:05:39;94627.19;;;20.88;67.98
6425;BME280;12193;42.642;23.384;2023-08-08T07:08:09;94628.91;;;20.58;69.54
6425;BME280;12193;42.642;23.384;2023-08-08T07:10:39;94631.59;;;21.59;63.47
6425;BME280;12193;42.642;23.384;2023-08-08T07:13:08;94627.56;;;22.84;56.27
6425;BME280;12193;42.642;23.384;2023-08-08T07:15:38;94620.69;;;21.40;57.69
6425;BME280;12193;42.642;23.384;2023-08-08T07:18:10;94607.94;;;19.85;63.06
6425;BME280;12193;42.642;23.384;2023-08-08T07:20:39;94619.91;;;21.40;57.10
6425;BME280;12193;42.642;23.384;2023-08-08T07:23:08;94610.75;;;22.55;53.13
6425;BME280;12193;42.642;23.384;2023-08-08T07:25:37;94625.88;;;23.13;49.57
6425;BME280;12193;42.642;23.384;2023-08-08T07:28:07;94618.88;;;23.65;49.22
6425;BME280;12193;42.642;23.384;2023-08-08T07:30:36;94613.94;;;24.16;47.94
6425;BME280;12193;42.642;23.384;2023-08-08T07:33:05;94615.66;;;23.68;48.73
6425;BME280;12193;42.642;23.384;2023-08-08T07:35:38;94622.72;;;22.43;52.88
6425;BME280;12193;42.642;23.384;2023-08-08T07:38:07;94620.69;;;21.55;53.97
6425;BME280;12193;42.642;23.384;2023-08-08T07:40:36;94627.84;;;21.55;54.11
6425;BME280;12193;42.642;23.384;2023-08-08T07:43:07;94616.44;;;21.54;54.16
6425;BME280;12193;42.642;23.384;2023-08-08T07:45:36;94624.22;;;22.69;50.38
6425;BME280;12193;42.642;23.384;2023-08-08T07:48:06;94624.16;;;23.70;49.32
6425;BME280;12193;42.642;23.384;2023-08-08T07:50:38;94627.09;;;22.77;48.79
6425;BME280;12193;42.642;23.384;2023-08-08T07:53:07;94629.22;;;22.75;50.10
6425;BME280;12193;42.642;23.384;2023-08-08T07:55:36;94614.38;;;23.27;48.95
6425;BME280;12193;42.642;23.384;2023-08-08T07:58:05;94613.28;;;23.33;46.57
6425;BME280;12193;42.642;23.384;2023-08-08T08:00:35;94617.56;;;22.76;49.43
6425;BME280;12193;42.642;23.384;2023-08-08T08:03:04;94607.81;;;23.20;48.04
6425;BME280;12193;42.642;23.384;2023-08-08T08:05:34;94620.84;;;23.88;46.44
6425;BME280;12193;42.642;23.384;2023-08-08T08:08:06;94629.63;;;24.40;46.69
6425;BME280;12193;42.642;23.384;2023-08-08T08:10:35;94624.25;;;24.69;43.99
6425;BME280;12193;42.642;23.384;2023-08-08T08:13:05;94626.81;;;24.97;44.67
6425;BME280;12193;42.642;23.384;2023-08-08T08:15:34;94616.41;;;24.30;44.57
6425;BME280;12193;42.642;23.384;2023-08-08T08:18:04;94613.16;;;25.04;41.39
6425;BME280;12193;42.642;23.384;2023-08-08T08:20:33;94612.56;;;23.90;43.40
6425;BME280;12193;42.642;23.384;2023-08-08T08:23:02;94613.16;;;22.52;46.95
6425;BME280;12193;42.642;23.384;2023-08-08T08:25:35;94619.66;;;23.32;45.91
6425;BME280;12193;42.642;23.384;2023-08-08T08:28:04;94611.72;;;24.51;43.33
6425;BME280;12193;42.642;23.384;2023-08-08T08:30:34;94610.41;;;25.14;41.95
6425;BME280;12193;42.642;23.384;2023-08-08T08:33:05;94613.34;;;24.70;42.24
6425;BME280;12193;42.642;23.384;2023-08-08T08:35:34;94612.69;;;24.31;44.19
6425;BME280;12193;42.642;23.384;2023-08-08T08:38:04;94614.81;;;23.39;46.35
6425;BME280;12193;42.642;23.384;2023-08-08T08:40:39;94625.81;;;22.65;49.28
6425;BME280;12193;42.642;23.384;2023-08-08T08:43:11;94623.94;;;23.23;48.95
6425;BME280;12193;42.642;23.384;2023-08-08T08:45:43;94624.16;;;22.84;48.54
6425;BME280;12193;42.642;23.384;2023-08-08T08:48:16;94620.53;;;22.60;49.29
6425;BME280;12193;42.642;23.384;2023-08-08T08:50:47;94616.13;;;22.25;51.62
6425;BME280;12193;42.642;23.384;2023-08-08T08:53:17;94610.38;;;21.54;53.98
6425;BME280;12193;42.642;23.384;2023-08-08T08:55:49;94620.63;;;21.10;56.93
6425;BME280;12193;42.642;23.384;2023-08-08T08:58:21;94615.69;;;22.82;52.00
6425;BME280;12193;42.642;23.384;2023-08-08T09:00:51;94601.78;;;23.81;47.27
6425;BME280;12193;42.642;23.384;2023-08-08T09:03:21;94608.44;;;23.74;46.82
6425;BME280;12193;42.642;23.384;2023-08-08T09:05:51;94610.34;;;22.92;49.68
6425;BME280;12193;42.642;23.384;2023-08-08T09:08:21;94613.47;;;22.25;54.16
6425;BME280;12193;42.642;23.384;2023-08-08T09:10:53;94625.09;;;22.44;50.21
6425;BME280;12193;42.642;23.384;2023-08-08T09:13:23;94603.13;;;24.07;47.90
6425;BME280;12193;42.642;23.384;2023-08-08T09:15:53;94614.00;;;24.06;46.31
6425;BME280;12193;42.642;23.384;2023-08-08T09:18:23;94616.03;;;24.42;45.56
6425;BME280;12193;42.642;23.384;2023-08-08T09:20:53;94608.25;;;24.92;44.21
6425;BME280;12193;42.642;23.384;2023-08-08T09:23:22;94613.63;;;25.47;44.22
6425;BME280;12193;42.642;23.384;2023-08-08T09:25:54;94603.50;;;25.31;44.49
6425;BME280;12193;42.642;23.384;2023-08-08T09:28:24;94611.81;;;25.80;42.83
6425;BME280;12193;42.642;23.384;2023-08-08T09:30:53;94607.56;;;25.79;41.22
6425;BME280;12193;42.642;23.384;2023-08-08T09:33:27;94619.31;;;25.23;41.70
6425;BME280;12193;42.642;23.384;2023-08-08T09:35:56;94613.97;;;23.82;43.71
6425;BME280;12193;42.642;23.384;2023-08-08T09:38:26;94623.56;;;23.78;44.28
6425;BME280;12193;42.642;23.384;2023-08-08T09:40:58;94621.03;;;24.20;43.66
6425;BME280;12193;42.642;23.384;2023-08-08T09:43:27;94619.28;;;25.04;44.41
6425;BME280;12193;42.642;23.384;2023-08-08T09:45:57;94623.03;;;24.61;42.68
6425;BME280;12193;42.642;23.384;2023-08-08T09:48:31;94619.91;;;24.96;43.09
6425;BME280;12193;42.642;23.384;2023-08-08T09:51:01;94614.81;;;24.58;42.85
6425;BME280;12193;42.642;23.384;2023-08-08T09:53:31;94627.72;;;23.89;43.90
6425;BME280;12193;42.642;23.384;2023-08-08T09:56:04;94621.56;;;23.60;44.54
6425;BME280;12193;42.642;23.384;2023-08-08T09:58:34;94625.69;;;24.61;42.34
6425;BME280;12193;42.642;23.384;2023-08-08T10:01:03;94624.94;;;24.27;42.95
6425;BME280;12193;42.642;23.384;2023-08-08T10:03:35;94624.19;;;23.65;43.93
6425;BME280;12193;42.642;23.384;2023-08-08T10:06:05;94626.78;;;23.37;44.15
6425;BME280;12193;42.642;23.384;2023-08-08T10:08:34;94626.03;;;24.55;42.50
6425;BME280;12193;42.642;23.384;2023-08-08T10:11:07;94631.53;;;25.05;41.45
6425;BME280;12193;42.642;23.384;2023-08-08T10:13:37;94618.06;;;24.97;41.00
6425;BME280;12193;42.642;23.384;2023-08-08T10:16:08;94627.44;;;24.89;40.88
6425;BME280;12193;42.642;23.384;2023-08-08T10:18:37;94618.28;;;24.77;41.22
6425;BME280;12193;42.642;23.384;2023-08-08T10:21:07;94624.19;;;24.50;41.01
6425;BME280;12193;42.642;23.384;2023-08-08T10:23:37;94612.16;;;24.81;39.47
6425;BME280;12193;42.642;23.384;2023-08-08T10:26:17;94619.56;;;25.26;40.25
6425;BME280;12193;42.642;23.384;2023-08-08T10:28:54;94610.53;;;25.40;39.29
6425;BME280;12193;42.642;23.384;2023-08-08T10:31:24;94613.94;;;25.46;39.57
6425;BME280;12193;42.642;23.384;2023-08-08T10:34:04;94604.94;;;24.63;40.79
6425;BME280;12193;42.642;23.384;2023-08-08T10:36:48;94597.72;;;24.40;41.95
6425;BME280;12193;42.642;23.384;2023-08-08T10:39:19;94603.53;;;24.42;42.60
6425;BME280;12193;42.642;23.384;2023-08-08T10:41:52;94602.78;;;24.65;42.87
6425;BME280;12193;42.642;23.384;2023-08-08T10:44:24;94586.94;;;25.34;39.77
6425;BME280;12193;42.642;23.384;2023-08-08T10:46:53;94587.94;;;25.38;40.02
6425;BME280;12193;42.642;23.384;2023-08-08T10:49:23;94584.38;;;24.87;41.36
6425;BME280;12193;42.642;23.384;2023-08-08T10:52:01;94581.03;;;25.00;40.99
6425;BME280;12193;42.642;23.384;2023-08-08T10:54:31;94571.69;;;24.84;41.30
6425;BME280;12193;42.642;23.384;2023-08-08T10:57:03;94574.47;;;24.74;41.42
6425;BME280;12193;42.642;23.384;2023-08-08T10:59:36;94571.19;;;25.37;40.33
6425;BME280;12193;42.642;23.384;2023-08-08T11:02:06;94590.19;;;25.81;39.73
6425;BME280;12193;42.642;23.384;2023-08-08T11:04:37;94579.78;;;25.11;40.26
6425;BME280;12193;42.642;23.384;2023-08-08T11:07:07;94582.25;;;24.19;42.25
6425;BME280;12193;42.642;23.384;2023-08-08T11:09:37;94584.16;;;25.26;41.48
6425;BME280;12193;42.642;23.384;2023-08-08T11:12:15;94571.47;;;25.54;41.21
6425;BME280;12193;42.642;23.384;2023-08-08T11:14:45;94589.31;;;26.31;39.08
6425;BME280;12193;42.642;23.384;2023-08-08T11:17:14;94581.25;;;26.49;38.25
6425;BME280;12193;42.642;23.384;2023-08-08T11:19:43;94567.06;;;26.22;37.98
6425;BME280;12193;42.642;23.384;2023-08-08T11:22:13;94581.50;;;26.21;39.32
6425;BME280;12193;42.642;23.384;2023-08-08T11:24:42;94573.69;;;25.47;39.38
6425;BME280;12193;42.642;23.384;2023-08-08T11:27:11;94575.59;;;26.38;38.04
6425;BME280;12193;42.642;23.384;2023-08-08T11:29:49;94573.09;;;26.41;38.40
6425;BME280;12193;42.642;23.384;2023-08-08T11:32:18;94567.19;;;26.84;37.62
6425;BME280;12193;42.642;23.384;2023-08-08T11:34:49;94569.53;;;26.99;36.79
6425;BME280;12193;42.642;23.384;2023-08-08T11:37:18;94566.06;;;25.91;37.95
6425;BME280;12193;42.642;23.384;2023-08-08T11:39:48;94564.25;;;25.00;40.21
6425;BME280;12193;42.642;23.384;2023-08-08T11:42:18;94569.75;;;25.45;40.08
6425;BME280;12193;42.642;23.384;2023-08-08T11:44:50;94569.38;;;25.83;39.99
6425;BME280;12193;42.642;23.384;2023-08-08T11:47:24;94574.78;;;26.10;39.74
6425;BME280;12193;42.642;23.384;2023-08-08T11:49:59;94547.56;;;26.27;37.58
6425;BME280;12193;42.642;23.384;2023-08-08T11:52:29;94563.84;;;26.79;37.25
6425;BME280;12193;42.642;23.384;2023-08-08T11:54:59;94561.34;;;26.42;37.73
6425;BME280;12193;42.642;23.384;2023-08-08T11:57:28;94558.69;;;26.15;38.43
6425;BME280;12193;42.642;23.384;2023-08-08T12:00:01;94549.28;;;25.27;39.60
6425;BME280;12193;42.642;23.384;2023-08-08T12:02:34;94548.94;;;25.10;40.28
6425;BME280;12193;42.642;23.384;2023-08-08T12:05:04;94547.38;;;25.09;40.93
6425;BME280;12193;42.642;23.384;2023-08-08T12:07:35;94549.28;;;25.91;39.71
6425;BME280;12193;42.642;23.384;2023-08-08T12:10:14;94552.34;;;25.98;38.95
6425;BME280;12193;42.642;23.384;2023-08-08T12:12:44;94541.03;;;26.19;38.36
6425;BME280;12193;42.642;23.384;2023-08-08T12:15:16;94545.88;;;26.71;37.47
6425;BME280;12193;42.642;23.384;2023-08-08T12:17:46;94539.13;;;26.87;37.67
6425;BME280;12193;42.642;23.384;2023-08-08T12:20:15;94539.97;;;26.60;38.18
6425;BME280;12193;42.642;23.384;2023-08-08T12:22:45;94545.88;;;26.44;37.89
6425;BME280;12193;42.642;23.384;2023-08-08T12:25:14;94533.59;;;26.30;38.26
6425;BME280;12193;42.642;23.384;2023-08-08T12:27:46;94531.78;;;25.53;39.48
6425;BME280;12193;42.642;23.384;2023-08-08T12:30:18;94541.81;;;26.33;37.94
6425;BME280;12193;42.642;23.384;2023-08-08T12:32:48;94534.31;;;27.24;36.84
6425;BME280;12193;42.642;23.384;2023-08-08T12:35:17;94535.94;;;26.49;37.40
6425;BME280;12193;42.642;23.384;2023-08-08T12:37:46;94525.44;;;25.67;39.22
6425;BME280;12193;42.642;23.384;2023-08-08T12:40:16;94525.28;;;25.45;40.31
6425;BME280;12193;42.642;23.384;2023-08-08T12:42:54;94520.78;;;24.54;41.50
6425;BME280;12193;42.642;23.384;2023-08-08T12:45:26;94514.41;;;23.23;45.07
6425;BME280;12193;42.642;23.384;2023-08-08T12:47:56;94522.75;;;23.68;44.90
6425;BME280;12193;42.642;23.384;2023-08-08T12:50:25;94523.47;;;23.79;44.21
6425;BME280;12193;42.642;23.384;2023-08-08T12:52:54;94527.34;;;23.29;44.20
6425;BME280;12193;42.642;23.384;2023-08-08T12:55:24;94519.41;;;22.86;45.27
6425;BME280;12193;42.642;23.384;2023-08-08T12:57:53;94516.81;;;23.19;45.79
6425;BME280;12193;42.642;23.384;2023-08-08T13:00:22;94511.06;;;23.41;45.59
6425;BME280;12193;42.642;23.384;2023-08-08T13:02:55;94510.56;;;23.01;46.25
6425;BME280;12193;42.642;23.384;2023-08-08T13:05:24;94517.09;;;23.18;47.05
6425;BME280;12193;42.642;23.384;2023-08-08T13:07:53;94510.28;;;23.02;46.68
6425;BME280;12193;42.642;23.384;2023-08-08T13:10:23;94507.88;;;23.11;46.80
6425;BME280;12193;42.642;23.384;2023-08-08T13:12:52;94508.59;;;23.49;44.86
6425;BME280;12193;42.642;23.384;2023-08-08T13:15:22;94504.75;;;23.89;43.52
6425;BME280;12193;42.642;23.384;2023-08-08T13:17:54;94503.88;;;24.22;42.46
6425;BME280;12193;42.642;23.384;2023-08-08T13:20:25;94504.41;;;23.95;42.66
6425;BME280;12193;42.642;23.384;2023-08-08T13:22:54;94507.94;;;23.91;43.79
6425;BME280;12193;42.642;23.384;2023-08-08T13:25:23;94511.13;;;23.59;44.47
6425;BME280;12193;42.642;23.384;2023-08-08T13:27:52;94504.94;;;23.12;45.56
6425;BME280;12193;42.642;23.384;2023-08-08T13:30:24;94501.41;;;23.50;46.01
6425;BME280;12193;42.642;23.384;2023-08-08T13:32:55;94497.69;;;23.79;43.45
6425;BME280;12193;42.642;23.384;2023-08-08T13:35:25;94502.41;;;23.59;44.02
6425;BME280;12193;42.642;23.384;2023-08-08T13:37:55;94499.94;;;23.67;44.60
6425;BME280;12193;42.642;23.384;2023-08-08T13:40:24;94506.38;;;23.28;45.14
6425;BME280;12193;42.642;23.384;2023-08-08T13:42:53;94499.75;;;22.92;46.30
6425;BME280;12193;42.642;23.384;2023-08-08T13:45:23;94498.03;;;23.44;46.25
6425;BME280;12193;42.642;23.384;2023-08-08T13:47:55;94502.25;;;23.74;45.31
6425;BME280;12193;42.642;23.384;2023-08-08T13:50:24;94505.84;;;23.59;44.51
6425;BME280;12193;42.642;23.384;2023-08-08T13:52:54;94511.09;;;23.36;45.29
6425;BME280;12193;42.642;23.384;2023-08-08T13:55:24;94511.66;;;23.33;46.13
6425;BME280;12193;42.642;23.384;2023-08-08T13:57:53;94513.75;;;23.64;45.23
6425;BME280;12193;42.642;23.384;2023-08-08T14:00:24;94501.19;;;23.98;45.63
6425;BME280;12193;42.642;23.384;2023-08-08T14:02:56;94510.25;;;23.97;43.85
6425;BME280;12193;42.642;23.384;2023-08-08T14:05:25;94507.41;;;23.89;42.70
6425;BME280;12193;42.642;23.384;2023-08-08T14:07:57;94505.84;;;24.11;42.01
6425;BME280;12193;42.642;23.384;2023-08-08T14:10:26;94504.16;;;23.68;44.77
6425;BME280;12193;42.642;23.384;2023-08-08T14:12:55;94498.56;;;23.41;45.58
6425;BME280;12193;42.642;23.384;2023-08-08T14:15:24;94505.31;;;23.57;46.18
6425;BME280;12193;42.642;23.384;2023-08-08T14:17:57;94491.50;;;23.89;44.70
6425;BME280;12193;42.642;23.384;2023-08-08T14:20:26;94492.63;;;23.83;45.52
6425;BME280;12193;42.642;23.384;2023-08-08T14:22:56;94503.09;;;23.98;44.63
6425;BME280;12193;42.642;23.384;2023-08-08T14:25:25;94495.56;;;23.76;45.46
6425;BME280;12193;42.642;23.384;2023-08-08T14:27:56;94486.72;;;22.96;45.70
6425;BME280;12193;42.642;23.384;2023-08-08T14:30:26;94502.47;;;23.20;45.75
6425;BME280;12193;42.642;23.384;2023-08-08T14:32:59;94489.59;;;23.37;46.31
6425;BME280;12193;42.642;23.384;2023-08-08T14:35:28;94497.50;;;23.14;46.48
6425;BME280;12193;42.642;23.384;2023-08-08T14:37:58;94486.16;;;22.99;46.61
6425;BME280;12193;42.642;23.384;2023-08-08T14:40:27;94491.22;;;23.00;46.83
6425;BME280;12193;42.642;23.384;2023-08-08T14:42:58;94486.59;;;23.15;46.39
6425;BME280;12193;42.642;23.384;2023-08-08T14:45:28;94488.16;;;23.50;46.00
6425;BME280;12193;42.642;23.384;2023-08-08T14:48:00;94485.75;;;23.53;46.75
6425;BME280;12193;42.642;23.384;2023-08-08T14:50:29;94491.66;;;23.45;47.01
6425;BME280;12193;42.642;23.384;2023-08-08T14:52:58;94488.84;;;23.32;45.60
6425;BME280;12193;42.642;23.384;2023-08-08T14:55:28;94487.88;;;23.23;46.64
6425;BME280;12193;42.642;23.384;2023-08-08T14:57:57;94485.63;;;23.02;45.98
6425;BME280;12193;42.642;23.384;2023-08-08T15:00:26;94493.63;;;23.30;46.35
6425;BME280;12193;42.642;23.384;2023-08-08T15:02:56;94491.31;;;23.23;46.58
6425;BME280;12193;42.642;23.384;2023-08-08T15:05:28;94490.09;;;23.11;47.70
6425;BME280;12193;42.642;23.384;2023-08-08T15:07:57;94492.50;;;22.64;47.86
6425;BME280;12193;42.642;23.384;2023-08-08T15:10:26;94485.06;;;22.66;47.91
6425;BME280;12193;42.642;23.384;2023-08-08T15:12:56;94494.16;;;22.55;48.17
6425;BME280;12193;42.642;23.384;2023-08-08T15:15:25;94487.81;;;22.51;47.96
6425;BME280;12193;42.642;23.384;2023-08-08T15:17:56;94488.88;;;22.55;48.16
6425;BME280;12193;42.642;23.384;2023-08-08T15:20:28;94490.31;;;22.76;48.14
6425;BME280;12193;42.642;23.384;2023-08-08T15:22:57;94489.66;;;22.94;47.73
6425;BME280;12193;42.642;23.384;2023-08-08T15:25:26;94493.22;;;22.75;48.19
6425;BME280;12193;42.642;23.384;2023-08-08T15:27:55;94498.81;;;22.73;47.80
6425;BME280;12193;42.642;23.384;2023-08-08T15:30:25;94502.09;;;22.94;47.87
6425;BME280;12193;42.642;23.384;2023-08-08T15:32:54;94498.38;;;22.61;47.67
6425;BME280;12193;42.642;23.384;2023-08-08T15:35:26;94500.00;;;22.52;48.22
6425;BME280;12193;42.642;23.384;2023-08-08T15:37:56;94498.06;;;22.68;48.66
6425;BME280;12193;42.642;23.384;2023-08-08T15:40:26;94499.88;;;22.72;48.15
6425;BME280;12193;42.642;23.384;2023-08-08T15:42:55;94500.09;;;22.37;48.36
6425;BME280;12193;42.642;23.384;2023-08-08T15:45:24;94506.50;;;22.16;49.63
6425;BME280;12193;42.642;23.384;2023-08-08T15:47:54;94494.69;;;22.52;49.39
6425;BME280;12193;42.642;23.384;2023-08-08T15:50:23;94510.50;;;22.67;48.41
6425;BME280;12193;42.642;23.384;2023-08-08T15:52:55;94511.50;;;22.81;48.68
6425;BME280;12193;42.642;23.384;2023-08-08T15:55:25;94511.03;;;22.69;48.84
6425;BME280;12193;42.642;23.384;2023-08-08T15:57:55;94512.44;;;22.57;50.01
6425;BME280;12193;42.642;23.384;2023-08-08T16:00:24;94514.81;;;22.58;49.85
6425;BME280;12193;42.642;23.384;2023-08-08T16:02:54;94515.91;;;22.52;50.38
6425;BME280;12193;42.642;23.384;2023-08-08T16:05:25;94521.53;;;22.41;49.95
6425;BME280;12193;42.642;23.384;2023-08-08T16:07:58;94517.81;;;22.42;49.94
6425;BME280;12193;42.642;23.384;2023-08-08T16:10:28;94530.44;;;22.55;49.83
6425;BME280;12193;42.642;23.384;2023-08-08T16:12:57;94536.91;;;22.34;51.05